createdAt,value
2022-08-11T00:01:08.593Z,173
2022-08-11T00:21:08.354Z,169
2022-08-11T01:01:08.516Z,157
2022-08-11T01:21:08.424Z,166
2022-08-11T01:41:08.398Z,163
2022-08-11T02:01:08.400Z,164
2022-08-11T02:21:08.333Z,160
2022-08-11T04:01:08.297Z,160
2022-08-11T04:21:08.177Z,164
2022-08-11T04:41:08.151Z,168
2022-08-11T05:01:08.165Z,161
2022-08-11T05:21:08.098Z,158
2022-08-11T05:41:08.066Z,160
2022-08-11T06:01:08.135Z,176
2022-08-11T06:21:08.005Z,177
2022-08-11T06:41:08.154Z,184
2022-08-11T07:01:07.970Z,186
2022-08-11T07:21:42.885Z,173
2022-08-11T07:41:07.889Z,175
2022-08-11T08:01:08.655Z,182
2022-08-11T08:21:07.825Z,181
2022-08-11T08:41:07.308Z,173
2022-08-11T09:01:07.812Z,180
2022-08-11T09:21:07.769Z,169
2022-08-11T09:41:07.733Z,148
2022-08-11T10:01:07.754Z,152
2022-08-11T10:21:07.701Z,158
2022-08-11T10:41:07.181Z,157
2022-08-11T11:01:07.720Z,128
2022-08-11T11:21:07.647Z,144
2022-08-11T11:41:07.632Z,153
2022-08-11T12:01:07.615Z,145
2022-08-11T12:21:07.636Z,141
2022-08-11T12:41:15.281Z,149
2022-08-11T13:01:07.621Z,136
2022-08-11T13:21:07.557Z,130
2022-08-11T13:41:07.337Z,132
2022-08-11T14:01:16.816Z,137
2022-08-11T14:21:07.497Z,136
2022-08-11T14:41:07.276Z,150
2022-08-11T15:01:06.991Z,153
2022-08-11T15:21:07.423Z,159
2022-08-11T15:41:07.396Z,176
2022-08-11T16:01:08.804Z,169
2022-08-11T16:21:07.346Z,191
2022-08-11T16:41:11.013Z,183
2022-08-11T17:01:07.133Z,190
2022-08-11T17:21:07.253Z,186
2022-08-11T17:41:07.227Z,165
2022-08-11T18:01:08.988Z,155
2022-08-11T18:21:07.162Z,173
2022-08-11T18:41:07.125Z,179
2022-08-11T19:01:06.647Z,166
2022-08-11T19:21:07.068Z,168
2022-08-11T19:41:07.035Z,174
2022-08-11T20:01:06.871Z,167
2022-08-11T20:21:15.856Z,176
2022-08-11T20:41:06.949Z,172
2022-08-11T21:01:06.420Z,170
2022-08-11T21:21:07.006Z,166
2022-08-11T21:41:06.864Z,165
2022-08-11T22:01:06.863Z,182
2022-08-11T22:21:06.802Z,181
2022-08-11T22:41:06.283Z,175
2022-08-11T23:01:06.548Z,160
2022-08-11T23:21:06.713Z,156
2022-08-11T23:41:06.682Z,172
